createdAt,value
2023-01-01T00:00:57.547Z,81.18
2023-01-01T00:03:28.738Z,81.25
2023-01-01T00:05:59.445Z,81.38
2023-01-01T00:08:27.432Z,81.75
2023-01-01T00:10:55.377Z,81.65
2023-01-01T00:13:23.291Z,81.38
2023-01-01T00:15:51.849Z,81.60
2023-01-01T00:18:19.842Z,81.22
2023-01-01T00:20:49.246Z,82.00
2023-01-01T00:23:18.783Z,82.45
2023-01-01T00:25:49.268Z,82.11
2023-01-01T00:28:17.215Z,81.99
2023-01-01T00:30:45.192Z,81.64
2023-01-01T00:33:13.074Z,82.52
2023-01-01T00:35:41.085Z,82.27
2023-01-01T00:38:10.422Z,82.58
2023-01-01T00:40:39.598Z,81.77
2023-01-01T00:43:08.644Z,81.55
2023-01-01T00:45:37.941Z,80.16
2023-01-01T00:48:06.364Z,80.83
2023-01-01T00:50:35.771Z,82.13
2023-01-01T00:53:05.162Z,82.55
2023-01-01T00:55:37.472Z,82.98
2023-01-01T00:58:06.547Z,81.45
2023-01-01T01:00:35.733Z,82.29
2023-01-01T01:03:07.595Z,82.02
2023-01-01T01:05:40.562Z,83.24
2023-01-01T01:08:09.494Z,83.67
2023-01-01T01:10:41.001Z,84.13
2023-01-01T01:13:10.302Z,82.15
2023-01-01T01:15:40.560Z,81.31
2023-01-01T01:18:09.446Z,82.56
2023-01-01T01:20:39.585Z,82.33
2023-01-01T01:23:09.180Z,81.67
2023-01-01T01:25:40.958Z,82.75
2023-01-01T01:28:10.437Z,83.11
2023-01-01T01:30:40.690Z,82.45
2023-01-01T01:33:10.631Z,83.28
2023-01-01T01:35:39.913Z,83.62
2023-01-01T01:38:09.100Z,84.17
2023-01-01T01:40:43.869Z,84.99
2023-01-01T01:43:23.200Z,85.87
2023-01-01T01:45:53.050Z,85.62
2023-01-01T01:48:22.166Z,85.26
2023-01-01T01:50:52.414Z,86.34
2023-01-01T01:53:24.893Z,85.72
2023-01-01T01:55:59.479Z,86.08
2023-01-01T01:58:28.905Z,85.83
2023-01-01T02:00:57.223Z,85.71
2023-01-01T02:03:32.251Z,86.23
2023-01-01T02:06:01.063Z,85.66
2023-01-01T02:08:30.154Z,85.47
2023-01-01T02:10:59.645Z,85.53
2023-01-01T02:13:27.980Z,85.87
2023-01-01T02:16:00.701Z,86.67
2023-01-01T02:18:37.815Z,87.43
2023-01-01T02:21:09.560Z,87.45
2023-01-01T02:23:57.718Z,88.73
2023-01-01T02:26:43.666Z,90.65
2023-01-01T02:29:43.480Z,91.71
2023-01-01T02:32:14.120Z,92.03
2023-01-01T02:34:48.067Z,92.03
2023-01-01T02:37:19.615Z,92.75
2023-01-01T02:39:52.729Z,93.23
2023-01-01T02:42:22.484Z,93.54
2023-01-01T02:44:56.581Z,94.00
2023-01-01T02:47:24.675Z,94.59
2023-01-01T02:50:02.184Z,96.04
2023-01-01T02:53:13.928Z,95.70
2023-01-01T02:55:51.712Z,100.00
2023-01-01T02:58:45.905Z,99.00
2023-01-01T03:01:24.693Z,98.46
2023-01-01T03:04:02.855Z,96.82
2023-01-01T03:06:39.758Z,99.80
2023-01-01T03:09:16.390Z,98.10
2023-01-01T03:11:50.497Z,98.44
2023-01-01T03:14:26.171Z,98.56
2023-01-01T03:17:00.920Z,98.98
2023-01-01T03:19:35.864Z,99.10
2023-01-01T03:22:07.930Z,99.49
2023-01-01T03:24:39.785Z,93.73
2023-01-01T03:27:12.354Z,92.19
2023-01-01T03:29:42.458Z,92.98
2023-01-01T03:32:14.769Z,93.33
2023-01-01T03:34:48.271Z,93.09
2023-01-01T03:37:20.689Z,94.16
2023-01-01T03:39:52.565Z,94.51
2023-01-01T03:42:28.241Z,94.18
2023-01-01T03:45:04.116Z,95.16
2023-01-01T03:47:34.287Z,96.17
2023-01-01T03:50:04.078Z,95.36
2023-01-01T03:52:43.236Z,94.85
2023-01-01T03:55:19.371Z,94.87
2023-01-01T03:57:56.855Z,94.27
2023-01-01T04:00:28.317Z,91.01
2023-01-01T04:03:01.723Z,91.21
2023-01-01T04:05:31.111Z,90.68
2023-01-01T04:08:03.083Z,90.70
2023-01-01T04:10:32.487Z,89.98
2023-01-01T04:13:03.759Z,88.73
2023-01-01T04:15:33.118Z,87.84
2023-01-01T04:18:02.594Z,87.80
2023-01-01T04:20:30.553Z,87.36
2023-01-01T04:22:58.944Z,87.14
2023-01-01T04:25:27.551Z,86.44
2023-01-01T04:27:56.169Z,87.29
2023-01-01T04:30:24.140Z,87.05
2023-01-01T04:32:52.073Z,86.86
2023-01-01T04:35:22.430Z,87.61
2023-01-01T04:37:50.428Z,87.78
2023-01-01T04:40:18.615Z,87.92
2023-01-01T04:42:46.605Z,88.27
2023-01-01T04:45:15.400Z,88.32
2023-01-01T04:47:43.869Z,88.56
2023-01-01T04:50:11.880Z,89.17
2023-01-01T04:52:41.288Z,89.81
2023-01-01T04:55:10.023Z,89.34
2023-01-01T04:57:38.069Z,89.23
2023-01-01T05:00:07.200Z,89.45
2023-01-01T05:02:35.381Z,89.15
2023-01-01T05:05:03.496Z,90.28
2023-01-01T05:07:31.466Z,89.28
2023-01-01T05:10:00.881Z,89.56
2023-01-01T05:12:31.095Z,90.17
2023-01-01T05:14:59.027Z,89.91
2023-01-01T05:17:27.075Z,90.23
2023-01-01T05:19:55.021Z,89.95
2023-01-01T05:22:23.002Z,90.95
2023-01-01T05:24:50.935Z,90.81
2023-01-01T05:27:20.397Z,90.90
2023-01-01T05:29:48.355Z,90.09
2023-01-01T05:34:43.209Z,89.86
2023-01-01T05:37:11.232Z,90.14
2023-01-01T05:39:39.192Z,89.78
2023-01-01T05:42:07.346Z,90.34
2023-01-01T05:44:36.718Z,91.05
2023-01-01T05:47:04.886Z,90.31
2023-01-01T05:49:32.822Z,90.17
2023-01-01T05:52:00.800Z,90.13
2023-01-01T05:54:28.865Z,89.84
2023-01-01T05:56:56.853Z,89.53
2023-01-01T05:59:24.796Z,90.62
2023-01-01T06:01:54.231Z,91.18
2023-01-01T06:04:22.348Z,91.92
2023-01-01T06:06:50.342Z,92.57
2023-01-01T06:09:18.253Z,92.92
2023-01-01T06:11:46.214Z,93.79
2023-01-01T06:14:14.186Z,93.42
2023-01-01T06:16:42.697Z,93.00
2023-01-01T06:19:12.307Z,93.82
2023-01-01T06:21:40.367Z,92.59
2023-01-01T06:24:08.914Z,92.68
2023-01-01T06:26:36.941Z,93.38
2023-01-01T06:29:04.878Z,93.94
2023-01-01T06:31:40.175Z,95.73
2023-01-01T06:34:08.506Z,94.84
2023-01-01T06:36:37.889Z,95.50
2023-01-01T06:39:06.220Z,97.97
2023-01-01T06:41:34.431Z,98.71
2023-01-01T06:44:03.082Z,99.58
2023-01-01T06:46:32.277Z,99.71
2023-01-01T06:49:02.047Z,100.00
2023-01-01T06:51:32.443Z,100.00
2023-01-01T06:54:03.406Z,98.55
2023-01-01T06:56:32.191Z,98.82
2023-01-01T06:59:00.802Z,98.48
2023-01-01T07:01:30.711Z,99.11
2023-01-01T07:04:00.311Z,99.90
2023-01-01T07:06:29.528Z,98.44
2023-01-01T07:08:57.489Z,99.49
2023-01-01T07:11:27.518Z,98.17
2023-01-01T07:13:55.962Z,100.00
2023-01-01T07:16:24.989Z,100.00
2023-01-01T07:18:53.207Z,100.00
2023-01-01T07:21:29.984Z,99.07
2023-01-01T07:23:59.177Z,99.81
2023-01-01T07:26:30.639Z,100.00
2023-01-01T07:29:06.237Z,100.00
2023-01-01T07:31:35.794Z,100.00
2023-01-01T07:34:03.862Z,99.02
2023-01-01T07:36:31.933Z,98.36
2023-01-01T07:39:00.061Z,98.99
2023-01-01T07:41:29.479Z,99.82
2023-01-01T07:43:57.443Z,100.00
2023-01-01T07:46:25.524Z,100.00
2023-01-01T07:48:56.267Z,100.00
2023-01-01T07:51:24.336Z,100.00
2023-01-01T07:53:52.349Z,100.00
2023-01-01T07:56:20.583Z,100.00
2023-01-01T07:58:49.919Z,100.00
2023-01-01T08:01:19.271Z,100.00
2023-01-01T08:03:53.668Z,100.00
2023-01-01T08:06:22.501Z,100.00
2023-01-01T08:08:50.753Z,100.00
2023-01-01T08:11:18.768Z,100.00
2023-01-01T08:13:46.764Z,100.00
2023-01-01T08:16:16.157Z,100.00
2023-01-01T08:18:44.201Z,99.19
2023-01-01T08:21:12.233Z,98.34
2023-01-01T08:23:40.216Z,98.57
2023-01-01T08:26:08.229Z,99.26
2023-01-01T08:28:37.056Z,100.00
2023-01-01T08:31:05.205Z,100.00
2023-01-01T08:33:34.682Z,100.00
2023-01-01T08:36:03.716Z,100.00
2023-01-01T08:38:31.682Z,100.00
2023-01-01T08:40:59.605Z,100.00
2023-01-01T08:43:27.526Z,98.80
2023-01-01T08:45:55.507Z,98.32
2023-01-01T08:48:30.334Z,100.00
2023-01-01T08:51:01.914Z,100.00
2023-01-01T08:53:31.517Z,100.00
2023-01-01T08:56:00.351Z,100.00
2023-01-01T08:58:28.653Z,100.00
2023-01-01T09:00:56.654Z,100.00
2023-01-01T09:03:24.691Z,100.00
2023-01-01T09:05:52.807Z,100.00
2023-01-01T09:08:22.543Z,99.46
2023-01-01T09:10:51.191Z,96.45
2023-01-01T09:13:21.020Z,96.96
2023-01-01T09:15:49.291Z,97.81
2023-01-01T09:18:17.273Z,100.00
2023-01-01T09:20:45.285Z,99.23
2023-01-01T09:23:14.144Z,98.53
2023-01-01T09:25:43.543Z,99.63
2023-01-01T09:28:13.787Z,96.45
2023-01-01T09:30:42.133Z,96.29
2023-01-01T09:33:10.082Z,98.81
2023-01-01T09:35:38.989Z,96.50
2023-01-01T09:38:06.912Z,93.90
2023-01-01T09:40:50.965Z,95.86
2023-01-01T09:43:33.299Z,96.31
2023-01-01T09:46:06.642Z,92.40
2023-01-01T09:48:39.358Z,87.94
2023-01-01T09:51:14.838Z,83.68
2023-01-01T09:53:46.924Z,85.64
2023-01-01T09:56:26.917Z,83.80
2023-01-01T09:58:59.267Z,82.06
2023-01-01T10:01:40.879Z,80.49
2023-01-01T10:04:30.455Z,83.09
2023-01-01T10:07:06.173Z,83.81
2023-01-01T10:09:43.696Z,83.92
2023-01-01T10:12:18.074Z,82.83
2023-01-01T10:15:00.534Z,86.67
2023-01-01T10:17:37.054Z,83.17
2023-01-01T10:20:13.312Z,83.15
2023-01-01T10:22:48.764Z,78.46
2023-01-01T10:25:28.361Z,81.85
2023-01-01T10:28:00.555Z,79.66
2023-01-01T10:30:31.288Z,81.24
2023-01-01T10:33:00.358Z,76.67
2023-01-01T10:35:35.355Z,78.04
2023-01-01T10:38:05.674Z,75.22
2023-01-01T10:40:34.563Z,74.68
2023-01-01T10:43:04.430Z,80.41
2023-01-01T10:45:35.929Z,75.57
2023-01-01T10:48:18.735Z,79.90
2023-01-01T10:50:50.195Z,78.64
2023-01-01T10:53:40.095Z,78.95
2023-01-01T10:56:11.549Z,80.80
2023-01-01T10:58:45.322Z,80.07
2023-01-01T11:01:20.669Z,80.94
2023-01-01T11:04:20.537Z,82.17
2023-01-01T11:06:49.437Z,83.23
2023-01-01T11:09:23.064Z,84.86
2023-01-01T11:12:07.184Z,84.25
2023-01-01T11:14:41.874Z,81.03
2023-01-01T11:17:11.967Z,80.81
2023-01-01T11:19:51.295Z,76.78
2023-01-01T11:22:41.322Z,81.60
2023-01-01T11:25:23.791Z,76.03
2023-01-01T11:27:56.694Z,75.05
2023-01-01T11:30:28.690Z,75.61
2023-01-01T11:33:04.141Z,74.43
2023-01-01T11:35:37.666Z,72.97
2023-01-01T11:38:07.453Z,75.40
2023-01-01T11:40:47.055Z,74.49
2023-01-01T11:43:25.245Z,76.81
2023-01-01T11:45:56.168Z,69.91
2023-01-01T11:48:29.630Z,79.21
2023-01-01T11:50:59.829Z,71.90
2023-01-01T11:53:30.950Z,70.21
2023-01-01T11:56:15.228Z,75.83
2023-01-01T11:58:57.911Z,79.12
2023-01-01T12:01:31.047Z,68.45
2023-01-01T12:04:10.668Z,74.67
2023-01-01T12:06:50.395Z,66.30
2023-01-01T12:09:26.783Z,64.29
2023-01-01T12:12:06.270Z,71.47
2023-01-01T12:14:44.512Z,70.73
2023-01-01T12:17:25.740Z,67.45
2023-01-01T12:20:03.996Z,66.60
2023-01-01T12:22:33.488Z,64.13
2023-01-01T12:25:04.382Z,65.93
2023-01-01T12:27:52.690Z,65.59
2023-01-01T12:30:23.964Z,67.69
2023-01-01T12:33:30.712Z,64.26
2023-01-01T12:36:14.459Z,66.10
2023-01-01T12:39:07.096Z,66.92
2023-01-01T12:41:48.784Z,71.69
2023-01-01T12:44:28.835Z,69.94
2023-01-01T12:47:05.008Z,68.89
2023-01-01T12:50:06.121Z,71.67
2023-01-01T12:52:58.018Z,74.21
2023-01-01T12:58:52.030Z,69.21
2023-01-01T13:01:29.901Z,75.14
2023-01-01T13:04:38.281Z,73.14
2023-01-01T13:07:14.576Z,68.82
2023-01-01T13:09:48.705Z,67.84
2023-01-01T13:12:20.224Z,74.12
2023-01-01T13:14:50.963Z,73.25
2023-01-01T13:17:22.509Z,67.71
2023-01-01T13:20:00.076Z,65.98
2023-01-01T13:22:43.291Z,70.09
2023-01-01T13:25:23.807Z,74.09
2023-01-01T13:28:14.672Z,73.13
2023-01-01T13:30:53.110Z,68.50
2023-01-01T13:33:29.767Z,69.05
2023-01-01T13:36:32.118Z,71.25
2023-01-01T13:39:01.521Z,67.17
2023-01-01T13:41:35.741Z,67.28
2023-01-01T13:44:23.384Z,66.43
2023-01-01T13:47:21.247Z,68.23
2023-01-01T13:50:06.062Z,66.04
2023-01-01T13:52:48.463Z,68.29
2023-01-01T13:55:50.891Z,73.48
2023-01-01T13:58:41.891Z,71.08
2023-01-01T14:01:41.742Z,69.95
2023-01-01T14:04:28.016Z,72.98
2023-01-01T14:07:05.714Z,75.26
2023-01-01T14:09:46.804Z,73.75
2023-01-01T14:12:19.162Z,73.00
2023-01-01T14:14:48.930Z,73.93
2023-01-01T14:17:18.430Z,72.71
2023-01-01T14:19:46.647Z,75.91
2023-01-01T14:22:18.029Z,76.85
2023-01-01T14:24:48.651Z,76.99
2023-01-01T14:27:21.950Z,77.24
2023-01-01T14:29:52.718Z,72.47
2023-01-01T14:32:25.259Z,71.34
2023-01-01T14:35:03.425Z,74.44
2023-01-01T14:37:31.581Z,72.14
2023-01-01T14:40:09.192Z,73.60
2023-01-01T14:42:38.500Z,71.10
2023-01-01T14:45:16.389Z,75.13
2023-01-01T14:47:50.779Z,79.24
2023-01-01T14:50:25.550Z,77.15
2023-01-01T14:52:57.148Z,77.58
2023-01-01T14:55:29.228Z,79.99
2023-01-01T14:58:00.830Z,77.72
2023-01-01T15:00:32.341Z,79.96
2023-01-01T15:03:13.702Z,78.43
2023-01-01T15:05:42.444Z,78.48
2023-01-01T15:08:20.808Z,80.82
2023-01-01T15:10:49.334Z,81.82
2023-01-01T15:13:22.596Z,82.04
2023-01-01T15:15:53.768Z,81.07
2023-01-01T15:18:40.812Z,81.84
2023-01-01T15:21:16.674Z,83.97
2023-01-01T15:35:39.261Z,92.67
2023-01-01T15:38:17.579Z,92.41
2023-01-01T15:56:59.324Z,92.82
2023-01-01T16:05:39.466Z,95.26
2023-01-01T16:31:33.092Z,97.48
2023-01-01T16:34:06.959Z,97.62
2023-01-01T16:36:41.041Z,97.19
2023-01-01T16:39:14.237Z,96.54
2023-01-01T16:48:16.225Z,96.84
2023-01-01T16:50:46.135Z,97.53
2023-01-01T16:53:15.584Z,100.00
2023-01-01T16:55:43.751Z,98.61
2023-01-01T16:58:47.830Z,99.31
2023-01-01T17:01:03.053Z,97.94
2023-01-01T17:03:36.455Z,97.60
2023-01-01T17:06:07.100Z,100.00
2023-01-01T17:08:36.991Z,98.02
2023-01-01T17:11:10.029Z,98.04
2023-01-01T17:13:39.428Z,99.89
2023-01-01T17:16:08.065Z,100.00
2023-01-01T17:19:13.506Z,100.00
2023-01-01T17:21:26.066Z,100.00
2023-01-01T17:23:54.542Z,100.00
2023-01-01T17:26:24.393Z,100.00
2023-01-01T17:29:00.026Z,100.00
2023-01-01T17:31:29.271Z,100.00
2023-01-01T17:34:02.859Z,100.00
2023-01-01T17:36:31.009Z,100.00
2023-01-01T17:39:25.990Z,100.00
2023-01-01T17:41:54.459Z,100.00
2023-01-01T17:44:22.443Z,100.00
2023-01-01T17:46:50.432Z,100.00
2023-01-01T17:49:20.031Z,100.00
2023-01-01T17:51:48.080Z,100.00
2023-01-01T17:54:22.805Z,100.00
2023-01-01T17:56:51.379Z,100.00
2023-01-01T17:59:21.125Z,100.00
2023-01-01T18:01:50.820Z,100.00
2023-01-01T18:04:21.706Z,100.00
2023-01-01T18:06:54.668Z,100.00
2023-01-01T18:09:26.184Z,100.00
2023-01-01T18:11:54.307Z,100.00
2023-01-01T18:14:24.956Z,100.00
2023-01-01T18:16:55.425Z,100.00
2023-01-01T18:19:24.909Z,100.00
2023-01-01T18:21:53.001Z,100.00
2023-01-01T18:24:20.972Z,100.00
2023-01-01T18:26:49.008Z,100.00
2023-01-01T18:59:00.622Z,100.00
2023-01-01T19:15:17.668Z,79.27
2023-01-01T19:17:46.762Z,78.59
2023-01-01T19:20:19.752Z,83.60
2023-01-01T19:22:47.951Z,85.53
2023-01-01T19:25:37.798Z,87.83
2023-01-01T19:28:35.696Z,89.19
2023-01-01T19:31:07.352Z,89.53
2023-01-01T19:33:35.360Z,87.36
2023-01-01T19:36:03.717Z,82.17
2023-01-01T19:38:53.847Z,84.58
2023-01-01T19:41:21.806Z,86.70
2023-01-01T19:43:49.716Z,84.44
2023-01-01T19:46:19.125Z,82.89
2023-01-01T19:48:47.149Z,79.50
2023-01-01T19:51:15.071Z,79.77
2023-01-01T19:53:43.076Z,72.42
2023-01-01T19:56:28.400Z,79.63
2023-01-01T19:58:56.415Z,76.12
2023-01-01T20:01:25.936Z,80.04
2023-01-01T20:03:56.097Z,75.17
2023-01-01T20:06:25.762Z,75.99
2023-01-01T20:08:55.079Z,82.72
2023-01-01T20:11:23.416Z,84.61
2023-01-01T20:13:51.408Z,85.74
2023-01-01T20:16:19.366Z,89.57
2023-01-01T20:18:49.569Z,91.50
2023-01-01T20:21:35.436Z,91.10
2023-01-01T20:24:03.742Z,91.43
2023-01-01T20:26:31.701Z,93.04
2023-01-01T20:29:20.920Z,93.52
2023-01-01T20:31:51.107Z,94.52
2023-01-01T20:34:21.134Z,94.90
2023-01-01T20:37:06.724Z,95.10
2023-01-01T20:39:38.468Z,95.48
2023-01-01T20:42:06.857Z,94.73
2023-01-01T20:44:36.474Z,94.61
2023-01-01T20:47:04.552Z,95.51
2023-01-01T20:49:35.588Z,95.03
2023-01-01T20:52:04.714Z,95.84
2023-01-01T20:54:32.867Z,95.58
2023-01-01T20:57:01.004Z,97.38
2023-01-01T20:59:35.729Z,97.52
2023-01-01T21:02:05.267Z,97.71
2023-01-01T21:04:39.009Z,97.46
2023-01-01T21:07:09.703Z,98.97
2023-01-01T21:09:40.080Z,97.83
2023-01-01T21:12:09.867Z,99.35
2023-01-01T21:14:38.221Z,100.00
2023-01-01T21:17:21.362Z,100.00
2023-01-01T21:19:54.986Z,100.00
2023-01-01T21:22:23.215Z,100.00
2023-01-01T21:24:54.387Z,100.00
2023-01-01T21:27:30.604Z,100.00
2023-01-01T21:29:58.888Z,100.00
2023-01-01T21:32:39.199Z,99.38
2023-01-01T21:35:19.792Z,100.00
2023-01-01T21:37:50.073Z,100.00
2023-01-01T21:40:41.412Z,100.00
2023-01-01T21:43:38.257Z,100.00
2023-01-01T21:46:29.355Z,100.00
2023-01-01T21:49:00.243Z,100.00
2023-01-01T21:51:32.830Z,100.00
2023-01-01T21:54:17.875Z,100.00
2023-01-01T21:56:54.034Z,100.00
2023-01-01T21:59:30.345Z,100.00
2023-01-01T22:02:29.439Z,100.00
2023-01-01T22:04:57.930Z,100.00
2023-01-01T22:10:24.653Z,100.00
2023-01-01T22:13:01.489Z,100.00
2023-01-01T22:15:37.413Z,100.00
2023-01-01T22:18:25.560Z,100.00
2023-01-01T22:20:56.629Z,100.00
2023-01-01T22:23:34.047Z,100.00
2023-01-01T22:26:06.836Z,100.00
2023-01-01T22:28:41.994Z,100.00
2023-01-01T22:31:14.799Z,100.00
2023-01-01T22:33:47.613Z,100.00
2023-01-01T22:36:20.456Z,100.00
2023-01-01T22:38:51.815Z,100.00
2023-01-01T22:41:23.520Z,100.00
2023-01-01T22:43:58.001Z,100.00
2023-01-01T22:46:29.546Z,100.00
2023-01-01T22:49:01.958Z,100.00
2023-01-01T22:51:36.969Z,100.00
2023-01-01T22:54:07.753Z,100.00
2023-01-01T22:56:37.549Z,100.00
2023-01-01T22:59:06.236Z,100.00
2023-01-01T23:01:35.736Z,100.00
2023-01-01T23:04:03.776Z,100.00
2023-01-01T23:06:34.494Z,100.00
2023-01-01T23:09:06.738Z,100.00
2023-01-01T23:11:36.290Z,100.00
2023-01-01T23:14:21.699Z,100.00
2023-01-01T23:16:50.294Z,100.00
2023-01-01T23:19:18.820Z,100.00
2023-01-01T23:21:47.613Z,100.00
2023-01-01T23:24:19.715Z,100.00
2023-01-01T23:26:50.681Z,100.00
2023-01-01T23:29:20.577Z,100.00
2023-01-01T23:31:49.854Z,100.00
2023-01-01T23:34:19.181Z,100.00
2023-01-01T23:36:47.407Z,100.00
2023-01-01T23:39:15.445Z,100.00
2023-01-01T23:41:43.496Z,100.00
2023-01-01T23:44:13.040Z,100.00
2023-01-01T23:46:41.682Z,100.00
2023-01-01T23:49:10.046Z,100.00
2023-01-01T23:51:39.777Z,100.00
2023-01-01T23:54:08.181Z,100.00
2023-01-01T23:56:36.471Z,100.00
2023-01-01T23:59:04.500Z,100.00
